createdAt,value
2022-07-26T01:01:48.009Z,0.30
2022-07-26T01:04:14.573Z,0.30
2022-07-26T01:06:41.392Z,0.40
2022-07-26T01:09:07.870Z,0.30
2022-07-26T01:11:34.281Z,0.30
2022-07-26T01:14:00.670Z,0.30
2022-07-26T01:16:27.091Z,0.30
2022-07-26T01:18:53.527Z,0.30
2022-07-26T01:21:19.903Z,0.40
2022-07-26T01:23:46.291Z,0.30
2022-07-26T01:26:12.718Z,0.30
2022-07-26T01:28:40.606Z,0.30
2022-07-26T01:31:07.393Z,0.30
2022-07-26T01:33:34.298Z,0.30
2022-07-26T01:36:00.941Z,0.30
2022-07-26T01:38:27.340Z,0.30
2022-07-26T01:40:53.809Z,0.30
2022-07-26T01:43:20.192Z,0.30
2022-07-26T01:45:46.680Z,0.30
2022-07-26T01:48:13.082Z,0.30
2022-07-26T01:50:39.550Z,0.30
2022-07-26T01:53:06.250Z,0.40
2022-07-26T01:55:32.931Z,0.40
2022-07-26T01:58:00.435Z,0.30
2022-07-26T02:00:26.819Z,0.38
2022-07-26T02:02:53.276Z,0.30
2022-07-26T02:05:19.802Z,0.30
2022-07-26T02:07:46.170Z,0.40
2022-07-26T02:10:13.121Z,0.30
2022-07-26T02:12:40.921Z,0.32
2022-07-26T02:15:07.781Z,0.40
2022-07-26T02:17:34.149Z,0.30
2022-07-26T02:20:00.543Z,0.30
2022-07-26T02:22:26.923Z,0.38
2022-07-26T02:24:53.433Z,0.30
2022-07-26T02:27:19.828Z,0.40
2022-07-26T02:29:46.213Z,0.35
2022-07-26T02:32:12.577Z,0.30
2022-07-26T02:34:38.972Z,0.30
2022-07-26T02:37:05.359Z,0.40
2022-07-26T02:39:31.743Z,0.40
2022-07-26T02:41:59.047Z,0.30
2022-07-26T02:44:25.706Z,0.40
2022-07-26T02:46:52.349Z,0.43
2022-07-26T02:49:19.274Z,0.30
2022-07-26T02:51:45.882Z,0.30
2022-07-26T02:54:12.665Z,0.38
2022-07-26T02:56:39.322Z,0.40
2022-07-26T02:59:05.884Z,0.30
2022-07-26T03:01:32.298Z,0.30
2022-07-26T03:03:58.769Z,0.40
2022-07-26T03:06:25.134Z,0.30
2022-07-26T03:08:51.514Z,0.30
2022-07-26T03:11:17.892Z,0.30
2022-07-26T03:13:44.269Z,0.38
2022-07-26T03:16:10.756Z,0.30
2022-07-26T03:18:37.182Z,0.30
2022-07-26T03:21:03.663Z,0.35
2022-07-26T03:23:30.034Z,0.40
2022-07-26T03:25:56.423Z,0.40
2022-07-26T03:28:22.788Z,0.40
2022-07-26T03:30:49.207Z,0.40
2022-07-26T03:33:15.620Z,0.30
2022-07-26T03:35:42.017Z,0.40
2022-07-26T03:38:08.393Z,0.30
2022-07-26T03:40:34.776Z,0.40
2022-07-26T03:43:01.149Z,0.30
2022-07-26T03:45:29.311Z,0.40
2022-07-26T03:47:55.674Z,0.30
2022-07-26T03:50:22.046Z,0.30
2022-07-26T03:52:48.419Z,0.30
2022-07-26T03:55:14.807Z,0.30
2022-07-26T03:57:41.184Z,0.35
2022-07-26T04:00:08.161Z,0.30
2022-07-26T04:02:34.606Z,0.30
2022-07-26T04:05:01.055Z,0.30
2022-07-26T04:07:27.440Z,0.40
2022-07-26T04:09:53.830Z,0.40
2022-07-26T04:12:20.206Z,0.30
2022-07-26T04:14:46.573Z,0.30
2022-07-26T04:17:13.119Z,0.30
2022-07-26T04:19:40.021Z,0.30
2022-07-26T04:22:06.423Z,0.40
2022-07-26T04:24:32.806Z,0.30
2022-07-26T04:26:59.188Z,0.30
2022-07-26T04:29:25.569Z,0.40
2022-07-26T04:31:51.968Z,0.38
2022-07-26T04:34:18.333Z,0.40
2022-07-26T04:36:44.709Z,0.40
2022-07-26T04:39:11.088Z,0.30
2022-07-26T04:41:37.458Z,0.30
2022-07-26T04:44:03.952Z,0.30
2022-07-26T04:46:30.440Z,0.30
2022-07-26T04:48:56.936Z,0.40
2022-07-26T04:51:23.393Z,0.40
2022-07-26T04:53:50.294Z,0.63
2022-07-26T04:56:16.686Z,0.30
2022-07-26T04:58:43.063Z,0.40
2022-07-26T05:01:10.749Z,0.30
2022-07-26T05:03:37.896Z,0.40
2022-07-26T05:06:04.418Z,0.30
2022-07-26T05:08:30.796Z,0.30
2022-07-26T05:10:57.186Z,0.30
2022-07-26T05:13:30.352Z,0.38
2022-07-26T05:15:57.569Z,0.40
2022-07-26T05:18:23.955Z,0.40
2022-07-26T05:20:50.836Z,0.30
2022-07-26T05:23:17.218Z,0.30
2022-07-26T05:25:43.705Z,0.40
2022-07-26T05:28:10.089Z,0.30
2022-07-26T05:30:36.534Z,0.40
2022-07-26T05:33:02.957Z,0.40
2022-07-26T05:35:29.340Z,0.32
2022-07-26T05:37:55.712Z,0.30
2022-07-26T05:40:22.105Z,0.30
2022-07-26T05:42:48.638Z,0.40
2022-07-26T05:45:15.039Z,0.40
2022-07-26T05:47:41.425Z,0.47
2022-07-26T05:50:08.105Z,0.30
2022-07-26T05:52:34.490Z,0.30
2022-07-26T05:55:00.884Z,0.30
2022-07-26T05:57:27.258Z,0.32
2022-07-26T05:59:53.629Z,0.30
2022-07-26T06:02:20.065Z,0.30
2022-07-26T06:04:47.574Z,0.30
2022-07-26T06:07:14.424Z,0.30
2022-07-26T06:09:40.801Z,0.30
2022-07-26T06:12:07.221Z,0.30
2022-07-26T06:14:33.940Z,0.40
2022-07-26T06:17:00.404Z,0.30
2022-07-26T06:19:26.825Z,0.30
2022-07-26T06:21:53.223Z,0.30
2022-07-26T06:24:19.603Z,0.32
2022-07-26T06:26:45.988Z,0.40
2022-07-26T06:29:13.140Z,0.32
2022-07-26T06:31:39.543Z,0.30
2022-07-26T06:34:06.461Z,0.30
2022-07-26T06:36:36.297Z,0.30
2022-07-26T06:39:02.706Z,0.30
2022-07-26T06:41:29.095Z,0.30
2022-07-26T06:43:55.467Z,0.20
2022-07-26T06:46:21.931Z,0.30
2022-07-26T06:48:52.626Z,0.30
2022-07-26T06:51:19.573Z,0.30
2022-07-26T06:53:45.944Z,0.20
2022-07-26T06:56:12.332Z,0.30
2022-07-26T06:58:38.717Z,0.30
2022-07-26T07:01:05.196Z,0.30
2022-07-26T07:03:31.639Z,0.30
2022-07-26T07:05:58.022Z,0.30
2022-07-26T07:08:24.397Z,0.30
2022-07-26T07:10:51.686Z,0.30
2022-07-26T07:13:18.960Z,0.30
2022-07-26T07:15:45.353Z,0.30
2022-07-26T07:18:11.723Z,0.30
2022-07-26T07:20:38.926Z,0.30
2022-07-26T07:23:05.298Z,0.30
2022-07-26T07:25:31.712Z,0.30
2022-07-26T07:27:58.531Z,0.22
2022-07-26T07:30:25.000Z,0.20
2022-07-26T07:32:54.370Z,0.30
2022-07-26T07:35:20.745Z,0.30
2022-07-26T07:37:52.763Z,0.30
2022-07-26T07:40:20.366Z,0.22
2022-07-26T07:42:46.744Z,0.30
2022-07-26T07:45:13.118Z,0.20
2022-07-26T07:47:39.499Z,0.20
2022-07-26T07:50:06.504Z,0.30
2022-07-26T07:52:32.882Z,0.30
2022-07-26T07:55:36.025Z,0.30
2022-07-26T07:57:45.664Z,0.20
2022-07-26T08:00:12.921Z,0.30
2022-07-26T08:02:42.363Z,0.30
2022-07-26T08:05:11.338Z,0.30
2022-07-26T08:07:41.007Z,0.30
2022-07-26T08:10:08.008Z,0.30
2022-07-26T08:12:34.406Z,0.30
2022-07-26T08:15:00.866Z,0.30
2022-07-26T08:17:34.044Z,0.38
2022-07-26T08:20:01.617Z,1.25
2022-07-26T08:22:28.028Z,0.30
2022-07-26T08:24:54.393Z,62.40
2022-07-26T08:27:20.994Z,121.10
2022-07-26T08:29:47.380Z,196.55
2022-07-26T08:32:13.863Z,187.20
2022-07-26T08:34:40.255Z,202.98
2022-07-26T08:37:17.246Z,0.30
2022-07-26T08:39:44.878Z,0.40
2022-07-26T08:42:22.866Z,0.40
2022-07-26T08:44:49.906Z,0.35
2022-07-26T08:47:18.142Z,0.40
2022-07-26T08:50:01.941Z,0.40
2022-07-26T08:52:28.505Z,0.40
2022-07-26T08:54:54.882Z,0.32
2022-07-26T08:57:21.262Z,0.30
2022-07-26T09:00:08.068Z,4.03
2022-07-26T09:02:40.078Z,133.02
2022-07-26T09:05:06.916Z,174.57
2022-07-26T09:07:33.512Z,12.13
2022-07-26T09:10:02.391Z,157.00
2022-07-26T09:12:29.426Z,175.18
2022-07-26T09:14:56.053Z,199.63
2022-07-26T09:17:23.948Z,191.63
2022-07-26T09:20:07.137Z,166.10
2022-07-26T09:22:33.522Z,189.57
2022-07-26T09:24:59.890Z,188.13
2022-07-26T09:27:28.272Z,190.37
2022-07-26T09:29:54.859Z,191.75
2022-07-26T09:32:25.576Z,197.07
2022-07-26T09:34:58.743Z,148.82
2022-07-26T09:37:35.563Z,180.18
2022-07-26T09:40:03.469Z,120.07
2022-07-26T09:42:30.176Z,286.23
2022-07-26T09:44:57.073Z,203.50
2022-07-26T09:47:26.971Z,199.32
2022-07-26T09:50:11.726Z,197.10
2022-07-26T09:52:40.321Z,203.20
2022-07-26T09:55:07.744Z,199.98
2022-07-26T09:57:34.432Z,207.75
2022-07-26T10:00:05.227Z,201.35
2022-07-26T10:02:32.897Z,215.60
2022-07-26T10:04:59.349Z,204.63
2022-07-26T10:07:25.733Z,225.48
2022-07-26T10:10:00.943Z,220.75
2022-07-26T10:12:30.573Z,205.30
2022-07-26T10:14:57.148Z,184.57
2022-07-26T10:17:31.412Z,196.13
2022-07-26T10:20:03.143Z,166.88
2022-07-26T10:22:41.017Z,211.88
2022-07-26T10:25:19.684Z,198.05
2022-07-26T10:27:50.687Z,183.73
2022-07-26T10:30:17.540Z,157.93
2022-07-26T10:33:07.116Z,187.43
2022-07-26T10:35:34.021Z,138.35
2022-07-26T10:38:02.639Z,130.43
2022-07-26T10:40:29.058Z,171.77
2022-07-26T10:46:17.261Z,194.33
2022-07-26T10:49:03.102Z,189.13
2022-07-26T10:51:39.898Z,173.53
2022-07-26T10:54:10.452Z,205.40
2022-07-26T10:56:37.171Z,241.70
2022-07-26T10:59:04.275Z,260.60
2022-07-26T11:01:34.724Z,257.87
2022-07-26T11:04:01.202Z,246.27
2022-07-26T11:06:28.549Z,254.30
2022-07-26T11:08:54.927Z,262.93
2022-07-26T11:11:29.249Z,204.60
2022-07-26T11:14:09.660Z,184.63
2022-07-26T11:16:49.220Z,207.07
2022-07-26T11:19:20.005Z,202.47
2022-07-26T11:21:47.691Z,200.17
2022-07-26T11:24:14.601Z,236.83
2022-07-26T11:26:42.357Z,226.80
2022-07-26T11:29:08.750Z,241.30
2022-07-26T11:31:51.341Z,151.43
2022-07-26T11:34:26.221Z,159.47
2022-07-26T11:36:54.948Z,171.63
2022-07-26T11:39:23.479Z,153.80
2022-07-26T11:41:49.943Z,209.03
2022-07-26T11:44:20.417Z,144.13
2022-07-26T11:46:46.913Z,145.88
2022-07-26T11:49:59.736Z,138.07
2022-07-26T11:52:14.588Z,157.63
2022-07-26T11:54:48.017Z,155.25
2022-07-26T11:57:14.496Z,160.35
2022-07-26T11:59:40.989Z,172.70
2022-07-26T12:02:08.554Z,194.05
2022-07-26T12:04:36.868Z,189.95
2022-07-26T12:07:14.091Z,190.80
2022-07-26T12:09:47.818Z,170.15
2022-07-26T12:12:25.719Z,184.93
2022-07-26T12:14:59.207Z,171.48
2022-07-26T12:17:25.673Z,191.05
2022-07-26T12:19:53.659Z,177.95
2022-07-26T12:22:23.456Z,199.95
2022-07-26T12:24:52.695Z,198.65
2022-07-26T12:27:24.429Z,192.32
2022-07-26T12:30:14.471Z,170.88
2022-07-26T12:32:42.053Z,191.50
2022-07-26T12:35:15.088Z,63.92
2022-07-26T12:37:47.447Z,249.60
2022-07-26T12:40:15.472Z,0.30
2022-07-26T12:42:50.815Z,0.40
2022-07-26T12:45:21.403Z,0.40
2022-07-26T12:47:49.101Z,0.30
2022-07-26T12:50:16.505Z,0.30
2022-07-26T12:52:42.918Z,0.30
2022-07-26T12:55:10.721Z,0.30
2022-07-26T12:57:37.146Z,0.20
2022-07-26T13:00:04.458Z,0.30
2022-07-26T13:02:30.834Z,0.30
2022-07-26T13:05:00.371Z,0.40
2022-07-26T13:07:27.178Z,0.30
2022-07-26T13:10:14.249Z,0.35
2022-07-26T13:12:40.310Z,246.38
2022-07-26T13:15:07.069Z,0.30
2022-07-26T13:17:33.460Z,0.35
2022-07-26T13:19:59.834Z,0.32
2022-07-26T13:22:26.228Z,0.30
2022-07-26T13:24:52.701Z,0.30
2022-07-26T13:27:20.119Z,0.38
2022-07-26T13:29:46.486Z,0.30
2022-07-26T13:32:12.872Z,0.30
2022-07-26T13:34:39.240Z,0.30
2022-07-26T13:37:08.046Z,0.30
2022-07-26T13:39:35.145Z,0.30
2022-07-26T13:42:01.532Z,0.30
2022-07-26T13:44:27.928Z,0.35
2022-07-26T13:46:54.356Z,0.30
2022-07-26T13:49:20.889Z,0.30
2022-07-26T13:51:47.333Z,0.30
2022-07-26T13:54:14.755Z,0.30
2022-07-26T13:56:41.273Z,0.30
2022-07-26T13:59:07.639Z,221.80
2022-07-26T14:01:44.755Z,223.13
2022-07-26T14:04:13.187Z,67.65
2022-07-26T14:06:39.965Z,238.43
2022-07-26T14:09:10.356Z,223.77
2022-07-26T14:11:37.279Z,252.30
2022-07-26T14:14:03.775Z,217.82
2022-07-26T14:16:30.253Z,225.52
2022-07-26T14:18:57.040Z,235.68
2022-07-26T14:21:38.709Z,211.60
2022-07-26T14:24:14.117Z,228.88
2022-07-26T14:26:42.900Z,223.10
2022-07-26T14:29:09.279Z,237.18
2022-07-26T14:31:35.692Z,224.82
2022-07-26T14:34:02.090Z,220.25
2022-07-26T14:36:28.489Z,211.60
2022-07-26T14:38:54.864Z,274.15
2022-07-26T14:41:21.345Z,230.45
2022-07-26T14:43:52.492Z,216.18
2022-07-26T14:46:21.890Z,212.15
2022-07-26T14:48:54.596Z,218.07
2022-07-26T14:51:21.405Z,214.75
2022-07-26T14:53:47.799Z,238.32
2022-07-26T14:56:14.183Z,216.40
2022-07-26T14:58:40.576Z,213.07
2022-07-26T15:01:06.997Z,231.65
2022-07-26T15:03:33.613Z,222.05
2022-07-26T15:05:59.984Z,218.95
2022-07-26T15:08:26.370Z,215.50
2022-07-26T15:10:52.749Z,220.30
2022-07-26T15:13:19.127Z,217.55
2022-07-26T15:15:45.494Z,231.05
2022-07-26T15:18:12.101Z,208.88
2022-07-26T15:20:43.030Z,215.25
2022-07-26T15:23:13.018Z,231.75
2022-07-26T15:25:39.439Z,235.10
2022-07-26T15:28:07.605Z,228.18
2022-07-26T15:30:33.987Z,242.13
2022-07-26T15:33:00.370Z,220.80
2022-07-26T15:35:26.760Z,215.85
2022-07-26T15:37:53.371Z,212.80
2022-07-26T15:40:19.778Z,214.73
2022-07-26T15:42:46.174Z,208.43
2022-07-26T15:45:12.702Z,217.65
2022-07-26T15:48:01.073Z,213.95
2022-07-26T15:50:26.035Z,219.02
2022-07-26T15:52:52.426Z,214.63
2022-07-26T15:55:19.976Z,224.88
2022-07-26T15:57:46.486Z,222.50
2022-07-26T16:00:13.334Z,222.88
2022-07-26T16:02:39.863Z,233.38
2022-07-26T16:05:06.414Z,224.60
2022-07-26T16:07:32.805Z,226.45
2022-07-26T16:09:59.192Z,229.55
2022-07-26T16:12:25.591Z,237.93
2022-07-26T16:14:51.964Z,229.98
2022-07-26T16:17:18.380Z,241.93
2022-07-26T16:19:47.573Z,232.63
2022-07-26T16:22:14.161Z,233.50
2022-07-26T16:24:41.622Z,237.95
2022-07-26T16:27:08.433Z,238.40
2022-07-26T16:29:34.826Z,239.38
2022-07-26T16:32:03.348Z,242.65
2022-07-26T16:34:29.782Z,236.82
2022-07-26T16:36:56.153Z,243.82
2022-07-26T16:39:22.553Z,247.70
2022-07-26T16:41:48.935Z,250.52
2022-07-26T16:44:15.327Z,249.93
2022-07-26T16:46:41.817Z,247.73
2022-07-26T16:49:10.874Z,247.27
2022-07-26T16:51:37.484Z,249.93
2022-07-26T16:54:04.036Z,249.90
2022-07-26T16:56:30.421Z,246.20
2022-07-26T16:58:56.811Z,256.05
2022-07-26T17:01:23.240Z,248.75
2022-07-26T17:03:49.698Z,246.63
2022-07-26T17:06:16.074Z,250.73
2022-07-26T17:08:42.453Z,248.07
2022-07-26T17:11:08.863Z,249.95
2022-07-26T17:13:35.271Z,245.68
2022-07-26T17:16:01.712Z,242.23
2022-07-26T17:18:28.594Z,242.13
2022-07-26T17:20:54.972Z,241.80
2022-07-26T17:23:21.351Z,239.38
2022-07-26T17:25:47.719Z,233.05
2022-07-26T17:28:14.102Z,242.90
2022-07-26T17:30:43.396Z,242.15
2022-07-26T17:33:09.843Z,234.80
2022-07-26T17:35:36.273Z,239.95
2022-07-26T17:38:02.988Z,237.80
2022-07-26T17:40:30.099Z,239.43
2022-07-26T17:42:56.540Z,241.98
2022-07-26T17:45:23.113Z,240.70
2022-07-26T17:47:49.494Z,243.07
2022-07-26T17:53:02.371Z,239.35
2022-07-26T17:55:28.747Z,241.95
2022-07-26T17:57:55.126Z,242.57
2022-07-26T18:00:22.089Z,234.68
2022-07-26T18:02:48.530Z,248.75
2022-07-26T18:05:15.086Z,243.23
2022-07-26T18:07:41.504Z,240.65
2022-07-26T18:10:08.272Z,240.85
2022-07-26T18:12:34.646Z,246.27
2022-07-26T18:15:01.038Z,238.45
2022-07-26T18:17:27.420Z,239.77
2022-07-26T18:19:53.808Z,239.60
2022-07-26T18:22:20.183Z,238.85
2022-07-26T18:24:46.598Z,232.77
2022-07-26T18:27:12.986Z,237.00
2022-07-26T18:29:39.371Z,237.52
2022-07-26T18:32:06.028Z,237.93
2022-07-26T18:34:32.420Z,234.63
2022-07-26T18:36:58.814Z,235.63
2022-07-26T18:39:25.205Z,237.63
2022-07-26T18:41:59.091Z,240.98
2022-07-26T18:44:25.497Z,231.70
2022-07-26T18:46:51.929Z,232.07
2022-07-26T18:49:20.082Z,237.80
2022-07-26T18:51:48.829Z,235.35
2022-07-26T18:54:15.697Z,237.52
2022-07-26T18:56:42.066Z,234.43
2022-07-26T18:59:08.797Z,236.50
2022-07-26T19:01:35.469Z,236.10
2022-07-26T19:04:06.522Z,233.03
2022-07-26T19:06:33.769Z,232.93
2022-07-26T19:09:00.308Z,231.77
2022-07-26T19:11:26.696Z,233.48
2022-07-26T19:13:53.500Z,231.80
2022-07-26T19:16:22.199Z,231.40
2022-07-26T19:18:51.665Z,232.37
2022-07-26T19:21:19.167Z,236.17
2022-07-26T19:23:45.571Z,232.00
2022-07-26T19:26:11.947Z,237.63
2022-07-26T19:28:38.345Z,232.83
2022-07-26T19:31:04.783Z,228.07
2022-07-26T19:33:31.214Z,233.80
2022-07-26T19:35:57.604Z,233.97
2022-07-26T19:38:23.991Z,237.83
2022-07-26T19:40:50.372Z,236.17
2022-07-26T19:43:16.759Z,235.80
2022-07-26T19:45:43.188Z,235.23
2022-07-26T19:48:09.594Z,231.37
2022-07-26T19:50:35.978Z,235.80
2022-07-26T19:53:02.367Z,237.93
2022-07-26T19:55:28.759Z,242.40
2022-07-26T19:57:55.135Z,240.10
2022-07-26T20:00:21.705Z,239.17
2022-07-26T20:02:48.197Z,237.20
2022-07-26T20:05:14.606Z,233.30
2022-07-26T20:07:40.993Z,238.40
2022-07-26T20:10:07.866Z,237.87
2022-07-26T20:12:35.319Z,244.47
2022-07-26T20:15:01.704Z,234.67
2022-07-26T20:17:28.144Z,239.13
2022-07-26T20:19:54.551Z,236.97
2022-07-26T20:22:20.931Z,232.37
2022-07-26T20:24:47.309Z,239.63
2022-07-26T20:27:13.685Z,236.80
2022-07-26T20:29:40.076Z,236.97
2022-07-26T20:32:06.508Z,237.73
2022-07-26T20:34:32.897Z,234.17
2022-07-26T20:36:59.271Z,237.23
2022-07-26T20:39:25.659Z,239.33
2022-07-26T20:41:52.032Z,239.60
2022-07-26T20:44:20.920Z,235.53
2022-07-26T20:46:50.361Z,235.13
2022-07-26T20:49:17.402Z,233.97
2022-07-26T20:51:44.354Z,234.60
2022-07-26T20:54:10.747Z,232.00
2022-07-26T20:56:37.743Z,236.03
2022-07-26T20:59:04.149Z,238.10
2022-07-26T21:01:31.067Z,243.73
2022-07-26T21:03:57.482Z,241.10
2022-07-26T21:06:23.864Z,239.27
2022-07-26T21:08:52.059Z,238.80
2022-07-26T21:11:18.702Z,238.33
2022-07-26T21:13:45.706Z,232.57
2022-07-26T21:16:15.133Z,231.20
2022-07-26T21:18:41.554Z,235.63
2022-07-26T21:21:07.963Z,226.20
2022-07-26T21:23:34.345Z,222.40
2022-07-26T21:26:01.076Z,235.47
2022-07-26T21:28:27.572Z,235.30
2022-07-26T21:30:53.969Z,236.37
2022-07-26T21:33:20.337Z,239.87
2022-07-26T21:35:46.728Z,236.83
2022-07-26T21:38:13.108Z,240.20
2022-07-26T21:40:39.497Z,240.57
2022-07-26T21:43:05.862Z,242.03
2022-07-26T21:45:32.280Z,241.90
2022-07-26T21:47:58.691Z,242.77
2022-07-26T21:50:25.107Z,242.33
2022-07-26T21:52:51.489Z,246.23
2022-07-26T21:55:18.255Z,244.60
2022-07-26T21:57:44.729Z,247.50
2022-07-26T22:00:12.445Z,244.47
2022-07-26T22:02:38.857Z,246.67
2022-07-26T22:05:05.601Z,242.57
2022-07-26T22:07:31.970Z,243.03
2022-07-26T22:09:58.358Z,243.17
2022-07-26T22:12:24.739Z,245.40
2022-07-26T22:14:51.125Z,241.57
2022-07-26T22:17:17.511Z,240.43
2022-07-26T22:19:43.905Z,242.00
2022-07-26T22:22:10.279Z,242.93
2022-07-26T22:24:36.670Z,240.43
2022-07-26T22:27:03.074Z,238.17
2022-07-26T22:29:35.729Z,240.23
2022-07-26T22:32:06.796Z,242.20
2022-07-26T22:34:33.210Z,238.63
2022-07-26T22:36:59.595Z,241.23
2022-07-26T22:39:25.969Z,241.80
2022-07-26T22:42:14.450Z,239.57
2022-07-26T22:44:38.709Z,241.17
2022-07-26T22:47:05.368Z,238.37
2022-07-26T22:49:31.814Z,240.18
2022-07-26T22:51:58.202Z,245.53
2022-07-26T22:54:24.570Z,242.38
2022-07-26T22:56:50.956Z,250.93
2022-07-26T22:59:17.330Z,250.63
2022-07-26T23:01:43.722Z,246.47
2022-07-26T23:04:10.168Z,243.23
2022-07-26T23:06:37.103Z,240.67
2022-07-26T23:09:04.728Z,248.00
2022-07-26T23:11:31.793Z,245.73
2022-07-26T23:13:59.344Z,242.53
2022-07-26T23:16:26.021Z,245.27
2022-07-26T23:18:52.579Z,245.97
2022-07-26T23:21:18.961Z,244.30
2022-07-26T23:23:45.334Z,245.80
2022-07-26T23:26:11.704Z,245.67
2022-07-26T23:28:38.676Z,250.73
2022-07-26T23:31:06.853Z,247.43
2022-07-26T23:33:52.932Z,248.47
2022-07-26T23:36:19.629Z,248.43
2022-07-26T23:38:46.010Z,248.98
2022-07-26T23:41:12.405Z,244.65
2022-07-26T23:43:38.785Z,248.53
2022-07-26T23:46:05.186Z,248.30
2022-07-26T23:48:31.639Z,250.93
2022-07-26T23:50:58.138Z,249.97
2022-07-26T23:53:26.744Z,245.43
2022-07-26T23:55:53.502Z,248.97
2022-07-26T23:58:19.883Z,247.65
